createdAt,value
2016-07-31T00:00:03.247Z,99.99
2016-07-31T00:00:11.991Z,99.99
2016-07-31T00:00:20.684Z,99.99
2016-07-31T00:00:29.405Z,99.99
2016-07-31T00:00:38.121Z,99.99
2016-07-31T00:00:46.822Z,99.99
2016-07-31T00:00:55.545Z,99.99
2016-07-31T00:01:04.293Z,99.99
2016-07-31T00:01:13.011Z,99.99
2016-07-31T00:01:21.742Z,99.99
2016-07-31T00:01:30.460Z,99.99
2016-07-31T00:01:39.152Z,99.99
2016-07-31T00:01:47.836Z,99.99
2016-07-31T00:01:56.562Z,99.99
2016-07-31T00:02:05.293Z,99.99
2016-07-31T00:02:14.019Z,99.99
2016-07-31T00:02:22.735Z,99.99
2016-07-31T00:02:31.485Z,99.99
2016-07-31T00:02:40.224Z,99.99
2016-07-31T00:02:48.928Z,99.99
2016-07-31T00:02:57.624Z,99.99
2016-07-31T00:03:06.350Z,99.99
2016-07-31T00:03:15.034Z,99.99
2016-07-31T00:03:23.757Z,99.99
2016-07-31T00:03:32.482Z,99.99
2016-07-31T00:03:41.161Z,99.99
2016-07-31T00:03:49.855Z,99.99
2016-07-31T00:03:58.593Z,99.99
2016-07-31T00:04:07.297Z,99.99
2016-07-31T00:04:15.992Z,99.99
2016-07-31T00:04:24.699Z,99.99
2016-07-31T00:04:33.417Z,99.99
2016-07-31T00:04:42.176Z,99.99
2016-07-31T00:04:50.870Z,99.99
2016-07-31T00:04:59.552Z,99.99
2016-07-31T00:05:08.282Z,99.99
2016-07-31T00:05:16.995Z,99.99
2016-07-31T00:05:25.720Z,99.99
2016-07-31T00:05:34.438Z,99.99
2016-07-31T00:05:43.184Z,99.99
2016-07-31T00:05:51.944Z,99.99
2016-07-31T00:06:00.674Z,99.99
2016-07-31T00:06:09.380Z,99.99
2016-07-31T00:06:18.134Z,99.99
2016-07-31T00:06:26.851Z,99.99
2016-07-31T00:06:35.560Z,99.99
2016-07-31T00:06:44.269Z,99.99
2016-07-31T00:06:52.975Z,99.99
2016-07-31T00:07:01.688Z,99.99
2016-07-31T00:07:10.405Z,99.99
2016-07-31T00:07:19.124Z,99.99
2016-07-31T00:07:27.842Z,99.99
2016-07-31T00:07:36.509Z,99.99
2016-07-31T00:07:45.198Z,99.99
2016-07-31T00:07:53.940Z,99.99
2016-07-31T00:08:02.634Z,99.99
2016-07-31T00:08:11.307Z,99.99
2016-07-31T00:08:20.037Z,99.99
2016-07-31T00:08:28.733Z,99.99
2016-07-31T00:08:37.436Z,99.99
2016-07-31T00:08:46.145Z,99.99
2016-07-31T00:08:54.854Z,99.99
2016-07-31T00:09:03.554Z,99.99
2016-07-31T00:09:12.283Z,99.99
2016-07-31T00:09:21.021Z,99.99
2016-07-31T00:09:29.744Z,99.99
2016-07-31T00:09:38.481Z,99.99
2016-07-31T00:09:47.171Z,99.99
2016-07-31T00:09:55.910Z,99.99
2016-07-31T00:10:04.632Z,99.99
2016-07-31T00:10:13.338Z,99.99
2016-07-31T00:10:22.046Z,99.99
2016-07-31T00:10:30.779Z,99.99
2016-07-31T00:10:39.502Z,99.99
2016-07-31T00:10:48.215Z,99.99
2016-07-31T00:10:56.903Z,99.99
2016-07-31T00:11:05.654Z,99.99
2016-07-31T00:11:14.370Z,99.99
2016-07-31T00:11:23.051Z,99.99
2016-07-31T00:11:31.809Z,99.84
2016-07-31T00:11:40.505Z,99.65
2016-07-31T00:11:49.193Z,99.99
2016-07-31T00:11:57.900Z,99.84
2016-07-31T00:12:06.625Z,99.99
2016-07-31T00:12:15.324Z,99.99
2016-07-31T00:12:24.021Z,99.55
2016-07-31T00:12:32.722Z,99.93
2016-07-31T00:12:41.405Z,99.65
2016-07-31T00:12:58.809Z,99.93
2016-07-31T00:13:07.509Z,99.93
2016-07-31T00:13:16.249Z,99.98
2016-07-31T00:13:24.946Z,99.99
2016-07-31T00:13:33.675Z,99.99
2016-07-31T00:13:42.399Z,99.84
2016-07-31T00:13:51.100Z,99.65
2016-07-31T00:13:59.795Z,99.55
2016-07-31T00:14:08.508Z,99.99
2016-07-31T00:14:17.233Z,99.55
2016-07-31T00:14:25.935Z,99.55
2016-07-31T00:14:34.670Z,99.55
2016-07-31T00:14:43.396Z,99.65
2016-07-31T00:14:52.108Z,99.84
2016-07-31T00:15:00.790Z,99.74
2016-07-31T00:15:09.499Z,99.84
2016-07-31T00:15:18.215Z,99.74
2016-07-31T00:15:26.909Z,99.65
2016-07-31T00:15:35.602Z,99.99
2016-07-31T00:15:44.333Z,99.84
2016-07-31T00:15:53.021Z,99.99
2016-07-31T00:16:01.742Z,99.84
2016-07-31T00:16:10.450Z,99.84
2016-07-31T00:16:19.170Z,99.74
2016-07-31T00:16:27.901Z,99.74
2016-07-31T00:16:36.627Z,99.55
2016-07-31T00:16:45.337Z,99.55
2016-07-31T00:16:54.047Z,99.65
2016-07-31T00:17:02.767Z,99.55
2016-07-31T00:17:11.483Z,99.65
2016-07-31T00:17:20.171Z,99.99
2016-07-31T00:17:28.914Z,99.99
2016-07-31T00:17:37.650Z,99.99
2016-07-31T00:17:46.335Z,99.99
2016-07-31T00:17:55.036Z,99.99
2016-07-31T00:18:03.717Z,99.99
2016-07-31T00:18:12.461Z,99.55
2016-07-31T00:18:21.216Z,99.55
2016-07-31T00:18:29.899Z,99.93
2016-07-31T00:18:38.623Z,99.74
2016-07-31T00:18:47.307Z,99.65
2016-07-31T00:18:55.996Z,99.55
2016-07-31T00:19:04.701Z,99.74
2016-07-31T00:19:13.389Z,99.74
2016-07-31T00:19:22.082Z,99.84
2016-07-31T00:19:30.752Z,99.99
2016-07-31T00:19:39.458Z,99.93
2016-07-31T00:19:48.189Z,99.93
2016-07-31T00:20:05.668Z,99.99
2016-07-31T00:20:14.412Z,99.84
2016-07-31T00:20:23.112Z,99.99
2016-07-31T00:20:31.796Z,99.65
2016-07-31T00:20:40.513Z,99.84
2016-07-31T00:20:49.267Z,99.74
2016-07-31T00:20:57.963Z,99.55
2016-07-31T00:21:06.709Z,99.46
2016-07-31T00:21:15.404Z,99.46
2016-07-31T00:21:24.116Z,99.55
2016-07-31T00:21:32.832Z,99.55
2016-07-31T00:21:41.556Z,99.55
2016-07-31T00:21:50.272Z,99.55
2016-07-31T00:21:58.972Z,99.55
2016-07-31T00:22:07.689Z,99.84
2016-07-31T00:22:16.419Z,99.74
2016-07-31T00:22:25.094Z,99.84
2016-07-31T00:22:33.832Z,99.84
2016-07-31T00:22:42.544Z,99.65
2016-07-31T00:22:51.249Z,99.84
2016-07-31T00:22:59.965Z,99.55
2016-07-31T00:23:08.699Z,99.55
2016-07-31T00:23:17.380Z,99.55
2016-07-31T00:23:26.053Z,99.65
2016-07-31T00:23:34.803Z,99.55
2016-07-31T00:23:43.533Z,99.55
2016-07-31T00:23:52.950Z,99.55
2016-07-31T00:24:01.621Z,99.55
2016-07-31T00:24:10.298Z,99.74
2016-07-31T00:24:18.998Z,99.93
2016-07-31T00:24:27.701Z,99.65
2016-07-31T00:24:36.407Z,99.65
2016-07-31T00:24:45.149Z,99.84
2016-07-31T00:24:53.842Z,99.65
2016-07-31T00:25:02.581Z,99.55
2016-07-31T00:25:11.286Z,99.55
2016-07-31T00:25:19.981Z,99.65
2016-07-31T00:25:28.714Z,99.74
2016-07-31T00:25:37.400Z,99.74
2016-07-31T00:25:46.088Z,99.55
2016-07-31T00:25:54.803Z,99.84
2016-07-31T00:26:04.240Z,99.74
2016-07-31T00:26:13.006Z,99.93
2016-07-31T00:26:21.687Z,99.74
2016-07-31T00:26:30.427Z,99.65
2016-07-31T00:26:39.172Z,99.84
2016-07-31T00:26:47.863Z,99.84
2016-07-31T00:26:56.573Z,99.65
2016-07-31T00:27:05.301Z,99.65
2016-07-31T00:27:14.042Z,99.99
2016-07-31T00:27:22.757Z,99.99
2016-07-31T00:27:31.453Z,99.98
2016-07-31T00:27:40.199Z,99.32
2016-07-31T00:27:48.944Z,99.27
2016-07-31T00:28:06.289Z,99.46
2016-07-31T00:28:14.999Z,99.36
2016-07-31T00:28:23.695Z,99.46
2016-07-31T00:28:32.433Z,99.36
2016-07-31T00:28:41.124Z,99.36
2016-07-31T00:28:49.850Z,99.27
2016-07-31T00:28:58.565Z,99.46
2016-07-31T00:29:07.304Z,99.36
2016-07-31T00:29:15.998Z,99.36
2016-07-31T00:29:24.678Z,99.32
2016-07-31T00:29:33.417Z,99.27
2016-07-31T00:29:42.145Z,99.55
2016-07-31T00:29:50.837Z,99.27
2016-07-31T00:29:59.516Z,98.94
2016-07-31T00:30:08.254Z,98.79
2016-07-31T00:30:16.987Z,98.79
2016-07-31T00:30:25.748Z,98.88
2016-07-31T00:30:34.482Z,98.88
2016-07-31T00:30:43.199Z,98.88
2016-07-31T00:30:51.933Z,98.94
2016-07-31T00:31:00.643Z,99.08
2016-07-31T00:31:09.360Z,99.27
2016-07-31T00:31:18.069Z,99.36
2016-07-31T00:31:26.779Z,99.46
2016-07-31T00:31:35.492Z,99.27
2016-07-31T00:31:44.202Z,99.27
2016-07-31T00:31:52.911Z,99.27
2016-07-31T00:32:02.332Z,99.36
2016-07-31T00:32:11.054Z,99.27
2016-07-31T00:32:19.802Z,99.36
2016-07-31T00:32:28.507Z,99.41
2016-07-31T00:32:37.245Z,99.36
2016-07-31T00:32:45.965Z,99.41
2016-07-31T00:32:54.685Z,99.27
2016-07-31T00:33:03.405Z,99.08
2016-07-31T00:33:12.128Z,99.17
2016-07-31T00:33:20.844Z,99.32
2016-07-31T00:33:29.559Z,99.36
2016-07-31T00:33:38.274Z,99.41
2016-07-31T00:33:46.958Z,99.46
2016-07-31T00:33:55.656Z,99.27
2016-07-31T00:34:04.348Z,99.36
2016-07-31T00:34:13.043Z,99.41
2016-07-31T00:34:21.767Z,99.27
2016-07-31T00:34:30.469Z,99.36
2016-07-31T00:34:39.197Z,99.36
2016-07-31T00:34:48.593Z,99.27
2016-07-31T00:34:57.271Z,99.36
2016-07-31T00:35:05.962Z,99.27
2016-07-31T00:35:14.714Z,99.08
2016-07-31T00:35:23.448Z,99.27
2016-07-31T00:35:32.166Z,99.27
2016-07-31T00:35:40.877Z,99.36
2016-07-31T00:35:49.576Z,99.17
2016-07-31T00:35:58.320Z,99.93
2016-07-31T00:36:07.053Z,99.65
2016-07-31T00:36:15.773Z,99.99
2016-07-31T00:36:24.471Z,99.74
2016-07-31T00:36:33.199Z,99.84
2016-07-31T00:36:41.915Z,99.84
2016-07-31T00:36:50.585Z,99.84
2016-07-31T00:36:59.969Z,99.84
2016-07-31T00:37:08.700Z,99.84
2016-07-31T00:37:17.400Z,99.84
2016-07-31T00:37:26.131Z,99.84
2016-07-31T00:37:34.869Z,99.84
2016-07-31T00:37:43.578Z,99.74
2016-07-31T00:37:52.296Z,99.55
2016-07-31T00:38:00.963Z,99.74
2016-07-31T00:38:09.688Z,99.99
2016-07-31T00:38:18.430Z,99.93
2016-07-31T00:38:27.148Z,99.84
2016-07-31T00:38:35.847Z,99.84
2016-07-31T00:38:44.562Z,99.84
2016-07-31T00:38:53.261Z,99.93
2016-07-31T00:39:01.985Z,99.65
2016-07-31T00:39:10.721Z,99.93
2016-07-31T00:39:19.452Z,99.84
2016-07-31T00:39:28.156Z,99.84
2016-07-31T00:39:36.924Z,99.74
2016-07-31T00:39:45.609Z,99.99
2016-07-31T00:39:54.319Z,99.84
2016-07-31T00:40:03.019Z,99.84
2016-07-31T00:40:11.742Z,99.65
2016-07-31T00:40:20.481Z,99.17
2016-07-31T00:40:29.196Z,99.27
2016-07-31T00:40:37.902Z,99.17
2016-07-31T00:40:46.616Z,99.46
2016-07-31T00:40:55.321Z,99.36
2016-07-31T00:41:04.032Z,99.46
2016-07-31T00:41:12.754Z,98.88
2016-07-31T00:41:21.481Z,99.17
2016-07-31T00:41:30.199Z,98.36
2016-07-31T00:41:38.904Z,98.74
2016-07-31T00:41:47.604Z,98.74
2016-07-31T00:41:56.321Z,98.65
2016-07-31T00:42:05.056Z,98.69
2016-07-31T00:42:13.782Z,98.32
2016-07-31T00:42:22.542Z,98.55
2016-07-31T00:42:31.281Z,98.65
2016-07-31T00:42:39.969Z,98.74
2016-07-31T00:42:48.727Z,98.08
2016-07-31T00:43:06.115Z,98.18
2016-07-31T00:43:14.828Z,97.99
2016-07-31T00:43:23.518Z,98.18
2016-07-31T00:43:32.236Z,98.5
2016-07-31T00:43:41.005Z,98.65
2016-07-31T00:43:49.709Z,98.69
2016-07-31T00:43:58.411Z,98.74
2016-07-31T00:44:07.115Z,97.89
2016-07-31T00:44:15.860Z,98.27
2016-07-31T00:44:24.579Z,97.99
2016-07-31T00:44:33.311Z,98.08
2016-07-31T00:44:42.049Z,97.89
2016-07-31T00:44:50.733Z,97.99
2016-07-31T00:44:59.436Z,97.7
2016-07-31T00:45:08.170Z,98.27
2016-07-31T00:45:16.849Z,97.89
2016-07-31T00:45:25.556Z,97.99
2016-07-31T00:45:34.958Z,98.18
2016-07-31T00:45:43.696Z,97.89
2016-07-31T00:45:52.398Z,97.99
2016-07-31T00:46:01.083Z,98.08
2016-07-31T00:46:09.827Z,97.6
2016-07-31T00:46:18.538Z,97.89
2016-07-31T00:46:27.224Z,97.7
2016-07-31T00:46:35.933Z,97.51
2016-07-31T00:46:44.654Z,97.7
2016-07-31T00:46:53.377Z,97.6
2016-07-31T00:47:02.092Z,97.41
2016-07-31T00:47:10.780Z,97.31
2016-07-31T00:47:19.483Z,97.22
2016-07-31T00:47:28.226Z,97.41
2016-07-31T00:47:37.619Z,97.31
2016-07-31T00:47:46.343Z,97.13
2016-07-31T00:47:55.041Z,97.13
2016-07-31T00:48:03.737Z,97.22
2016-07-31T00:48:12.448Z,97.13
2016-07-31T00:48:21.187Z,97.31
2016-07-31T00:48:29.915Z,97.31
2016-07-31T00:48:38.622Z,96.84
2016-07-31T00:48:47.328Z,97.22
2016-07-31T00:48:56.022Z,97.13
2016-07-31T00:49:04.747Z,97.13
2016-07-31T00:49:13.474Z,97.22
2016-07-31T00:49:22.172Z,97.22
2016-07-31T00:49:30.878Z,97.03
2016-07-31T00:49:39.587Z,97.03
2016-07-31T00:49:48.991Z,97.31
2016-07-31T00:49:57.651Z,97.41
2016-07-31T00:50:06.358Z,97.41
2016-07-31T00:50:15.059Z,97.51
2016-07-31T00:50:23.740Z,97.13
2016-07-31T00:50:32.450Z,97.51
2016-07-31T00:50:41.165Z,97.6
2016-07-31T00:50:49.862Z,97.41
2016-07-31T00:50:58.577Z,97.6
2016-07-31T00:51:07.912Z,97.51
2016-07-31T00:51:16.635Z,97.7
2016-07-31T00:51:25.303Z,97.6
2016-07-31T00:51:34.017Z,97.22
2016-07-31T00:51:42.709Z,97.41
2016-07-31T00:51:51.475Z,97.31
2016-07-31T00:52:00.171Z,97.31
2016-07-31T00:52:08.888Z,97.13
2016-07-31T00:52:17.594Z,97.41
2016-07-31T00:52:26.312Z,97.22
2016-07-31T00:52:35.067Z,96.55
2016-07-31T00:52:43.729Z,97.22
2016-07-31T00:52:52.440Z,97.13
2016-07-31T00:53:01.143Z,96.94
2016-07-31T00:53:09.890Z,97.22
2016-07-31T00:53:18.586Z,97.31
2016-07-31T00:53:27.279Z,97.03
2016-07-31T00:53:36.015Z,97.03
2016-07-31T00:53:44.749Z,96.75
2016-07-31T00:53:53.473Z,96.84
2016-07-31T00:54:02.188Z,96.94
2016-07-31T00:54:10.892Z,96.94
2016-07-31T00:54:19.600Z,96.75
2016-07-31T00:54:28.309Z,96.94
2016-07-31T00:54:37.040Z,97.22
2016-07-31T00:54:45.748Z,96.75
2016-07-31T00:54:54.470Z,96.75
2016-07-31T00:55:03.167Z,96.75
2016-07-31T00:55:11.870Z,96.94
2016-07-31T00:55:20.570Z,96.94
2016-07-31T00:55:29.261Z,96.65
2016-07-31T00:55:37.982Z,96.84
2016-07-31T00:55:46.706Z,96.75
2016-07-31T00:55:55.444Z,96.75
2016-07-31T00:56:04.132Z,96.75
2016-07-31T00:56:12.836Z,96.89
2016-07-31T00:56:22.186Z,96.94
2016-07-31T00:56:30.915Z,96.79
2016-07-31T00:56:39.609Z,96.75
2016-07-31T00:56:48.367Z,96.79
2016-07-31T00:56:57.078Z,97.17
2016-07-31T00:57:05.799Z,96.89
2016-07-31T00:57:14.528Z,97.22
2016-07-31T00:57:23.303Z,97.17
2016-07-31T00:57:32.716Z,97.27
2016-07-31T00:57:41.405Z,97.31
2016-07-31T00:57:50.149Z,97.08
2016-07-31T00:58:07.546Z,97.17
2016-07-31T00:58:16.241Z,97.41
2016-07-31T00:58:24.983Z,97.13
2016-07-31T00:58:33.688Z,97.08
2016-07-31T00:58:42.447Z,97.41
2016-07-31T00:58:51.184Z,97.31
2016-07-31T00:58:59.923Z,97.27
2016-07-31T00:59:08.602Z,97.17
2016-07-31T00:59:17.333Z,97.08
2016-07-31T00:59:26.029Z,97.17
2016-07-31T00:59:34.745Z,97.08
2016-07-31T00:59:43.441Z,97.13
2016-07-31T00:59:52.163Z,97.08
2016-07-31T01:00:00.853Z,97.46
2016-07-31T01:00:09.547Z,97.08
2016-07-31T01:00:18.294Z,97.08
2016-07-31T01:00:27.041Z,97.08
2016-07-31T01:00:35.728Z,97.22
2016-07-31T01:00:44.468Z,97.22
2016-07-31T01:00:53.143Z,96.94
2016-07-31T01:01:01.829Z,96.75
2016-07-31T01:01:10.541Z,96.75
2016-07-31T01:01:19.250Z,96.84
2016-07-31T01:01:28.001Z,96.94
2016-07-31T01:01:36.736Z,96.75
2016-07-31T01:01:45.425Z,97.13
2016-07-31T01:01:54.170Z,96.84
2016-07-31T01:02:02.897Z,96.84
2016-07-31T01:02:11.641Z,96.84
2016-07-31T01:02:20.377Z,96.75
2016-07-31T01:02:29.055Z,96.89
2016-07-31T01:02:37.731Z,97.13
2016-07-31T01:02:46.458Z,97.13
2016-07-31T01:02:55.159Z,96.75
2016-07-31T01:03:03.896Z,96.94
2016-07-31T01:03:12.603Z,96.75
2016-07-31T01:03:21.278Z,96.46
2016-07-31T01:03:29.987Z,96.94
2016-07-31T01:03:38.702Z,96.46
2016-07-31T01:03:47.389Z,96.75
2016-07-31T01:03:56.147Z,96.55
2016-07-31T01:04:04.865Z,96.65
2016-07-31T01:04:13.569Z,96.75
2016-07-31T01:04:22.292Z,96.84
2016-07-31T01:04:31.010Z,96.65
2016-07-31T01:04:39.680Z,97.13
2016-07-31T01:04:48.386Z,97.22
2016-07-31T01:04:57.116Z,96.84
2016-07-31T01:05:05.827Z,97.03
2016-07-31T01:05:14.546Z,96.75
2016-07-31T01:05:23.214Z,96.84
2016-07-31T01:05:31.985Z,96.94
2016-07-31T01:05:40.684Z,96.94
2016-07-31T01:05:49.355Z,96.94
2016-07-31T01:05:58.066Z,96.94
2016-07-31T01:06:06.797Z,97.08
2016-07-31T01:06:15.517Z,97.13
2016-07-31T01:06:24.251Z,96.7
2016-07-31T01:06:33.011Z,97.08
2016-07-31T01:06:41.673Z,96.7
2016-07-31T01:06:50.382Z,96.84
2016-07-31T01:06:59.135Z,96.98
2016-07-31T01:07:07.828Z,96.79
2016-07-31T01:07:17.228Z,96.89
2016-07-31T01:07:25.941Z,96.7
2016-07-31T01:07:34.689Z,96.75
2016-07-31T01:07:43.389Z,97.17
2016-07-31T01:07:52.113Z,97.6
2016-07-31T01:08:00.802Z,97.46
2016-07-31T01:08:09.544Z,97.36
2016-07-31T01:08:18.275Z,97.22
2016-07-31T01:08:26.967Z,97.41
2016-07-31T01:08:35.681Z,97.55
2016-07-31T01:08:44.385Z,97.27
2016-07-31T01:08:53.104Z,97.46
2016-07-31T01:09:01.846Z,97.46
2016-07-31T01:09:10.603Z,97.65
2016-07-31T01:09:19.331Z,97.55
2016-07-31T01:09:28.053Z,97.46
2016-07-31T01:09:36.776Z,97.46
2016-07-31T01:09:45.475Z,97.65
2016-07-31T01:09:54.180Z,97.55
2016-07-31T01:10:02.901Z,97.36
2016-07-31T01:10:11.620Z,97.55
2016-07-31T01:10:20.325Z,97.36
2016-07-31T01:10:29.058Z,97.36
2016-07-31T01:10:38.428Z,97.46
2016-07-31T01:10:47.147Z,97.55
2016-07-31T01:10:55.891Z,98.03
2016-07-31T01:11:04.614Z,98.03
2016-07-31T01:11:13.350Z,98.03
2016-07-31T01:11:22.098Z,97.84
2016-07-31T01:11:30.826Z,97.74
2016-07-31T01:11:39.537Z,98.03
2016-07-31T01:11:48.271Z,98.13
2016-07-31T01:11:57.002Z,97.84
2016-07-31T01:12:05.724Z,98.13
2016-07-31T01:12:14.422Z,97.93
2016-07-31T01:12:23.145Z,98.03
2016-07-31T01:12:31.833Z,97.65
2016-07-31T01:12:40.516Z,97.84
2016-07-31T01:12:49.224Z,97.74
2016-07-31T01:13:06.638Z,97.46
2016-07-31T01:13:15.345Z,97.55
2016-07-31T01:13:24.065Z,97.55
2016-07-31T01:13:32.784Z,97.46
2016-07-31T01:13:41.483Z,97.36
2016-07-31T01:13:50.201Z,97.55
2016-07-31T01:13:59.565Z,97.36
2016-07-31T01:14:08.271Z,97.27
2016-07-31T01:14:16.988Z,97.36
2016-07-31T01:14:25.703Z,97.36
2016-07-31T01:14:35.087Z,97.27
2016-07-31T01:14:43.770Z,97.27
2016-07-31T01:14:52.432Z,97.27
2016-07-31T01:15:01.134Z,97.36
2016-07-31T01:15:09.814Z,97.17
2016-07-31T01:15:18.530Z,97.27
2016-07-31T01:15:27.236Z,97.36
2016-07-31T01:15:35.974Z,97.08
2016-07-31T01:15:44.649Z,97.08
2016-07-31T01:15:53.370Z,96.7
2016-07-31T01:16:02.741Z,97.08
2016-07-31T01:16:11.465Z,96.79
2016-07-31T01:16:20.174Z,96.89
2016-07-31T01:16:28.887Z,96.89
2016-07-31T01:16:38.269Z,96.7
2016-07-31T01:16:46.968Z,96.7
2016-07-31T01:16:55.635Z,96.6
2016-07-31T01:17:04.381Z,96.6
2016-07-31T01:17:13.079Z,96.7
2016-07-31T01:17:22.454Z,96.79
2016-07-31T01:17:31.172Z,96.98
2016-07-31T01:17:39.872Z,96.98
2016-07-31T01:17:48.563Z,96.98
2016-07-31T01:17:57.990Z,96.79
2016-07-31T01:18:06.704Z,96.89
2016-07-31T01:18:15.430Z,97.17
2016-07-31T01:18:24.149Z,96.98
2016-07-31T01:18:32.844Z,96.7
2016-07-31T01:18:41.589Z,96.41
2016-07-31T01:18:50.324Z,96.6
2016-07-31T01:18:59.026Z,96.22
2016-07-31T01:19:07.745Z,96.51
2016-07-31T01:19:16.427Z,96.41
2016-07-31T01:19:25.111Z,96.41
2016-07-31T01:19:33.819Z,96.22
2016-07-31T01:19:42.500Z,96.89
2016-07-31T01:19:51.220Z,96.7
2016-07-31T01:19:59.949Z,96.89
2016-07-31T01:20:08.672Z,96.89
2016-07-31T01:20:17.382Z,96.31
2016-07-31T01:20:26.079Z,96.6
2016-07-31T01:20:35.465Z,96.22
2016-07-31T01:20:44.196Z,96.6
2016-07-31T01:20:52.911Z,96.22
2016-07-31T01:21:01.646Z,96.51
2016-07-31T01:21:10.363Z,96.12
2016-07-31T01:21:19.063Z,96.41
2016-07-31T01:21:28.490Z,96.51
2016-07-31T01:21:37.216Z,96.17
2016-07-31T01:21:45.926Z,96.31
2016-07-31T01:21:54.652Z,96.31
2016-07-31T01:22:03.367Z,96.31
2016-07-31T01:22:12.058Z,96.22
2016-07-31T01:22:20.823Z,96.12
2016-07-31T01:22:29.547Z,96.12
2016-07-31T01:22:38.261Z,96.31
2016-07-31T01:22:46.966Z,96.22
2016-07-31T01:22:55.707Z,95.98
2016-07-31T01:23:04.402Z,95.79
2016-07-31T01:23:13.126Z,95.7
2016-07-31T01:23:21.879Z,95.84
2016-07-31T01:23:30.622Z,95.65
2016-07-31T01:23:39.338Z,95.65
2016-07-31T01:23:48.049Z,95.27
2016-07-31T01:23:56.776Z,95.7
2016-07-31T01:24:05.519Z,95.32
2016-07-31T01:24:14.213Z,95.41
2016-07-31T01:24:22.920Z,95.6
2016-07-31T01:24:31.623Z,95.27
2016-07-31T01:24:40.284Z,95.46
2016-07-31T01:24:49.013Z,95.22
2016-07-31T01:24:57.732Z,95.65
2016-07-31T01:25:07.155Z,95.17
2016-07-31T01:25:15.919Z,95.08
2016-07-31T01:25:24.668Z,95.27
2016-07-31T01:25:33.407Z,95.46
2016-07-31T01:25:42.148Z,95.46
2016-07-31T01:25:50.878Z,95.27
2016-07-31T01:25:59.635Z,94.6
2016-07-31T01:26:08.404Z,94.98
2016-07-31T01:26:17.105Z,94.84
2016-07-31T01:26:25.793Z,94.56
2016-07-31T01:26:35.191Z,94.7
2016-07-31T01:26:43.922Z,94.84
2016-07-31T01:26:52.626Z,94.32
2016-07-31T01:27:01.363Z,94.89
2016-07-31T01:27:10.085Z,94.17
2016-07-31T01:27:18.774Z,94.27
2016-07-31T01:27:27.474Z,94.65
2016-07-31T01:27:36.140Z,94.74
2016-07-31T01:27:44.843Z,94.7
2016-07-31T01:27:53.525Z,94.6
2016-07-31T01:28:10.896Z,94.22
2016-07-31T01:28:19.579Z,94.27
2016-07-31T01:28:28.259Z,94.46
2016-07-31T01:28:36.951Z,94.65
2016-07-31T01:28:45.683Z,94.37
2016-07-31T01:28:54.403Z,93.98
2016-07-31T01:29:03.126Z,94.08
2016-07-31T01:29:11.855Z,93.98
2016-07-31T01:29:20.554Z,93.98
2016-07-31T01:29:29.278Z,94.27
2016-07-31T01:29:38.001Z,94.08
2016-07-31T01:29:46.685Z,94.08
2016-07-31T01:29:55.407Z,94.17
2016-07-31T01:30:04.118Z,94.17
2016-07-31T01:30:12.843Z,94.37
2016-07-31T01:30:21.533Z,94.27
2016-07-31T01:30:30.215Z,94.17
2016-07-31T01:30:38.904Z,94.17
2016-07-31T01:30:47.600Z,94.17
2016-07-31T01:30:56.351Z,94.27
2016-07-31T01:31:05.060Z,94.17
2016-07-31T01:31:13.768Z,94.08
2016-07-31T01:31:22.511Z,94.08
2016-07-31T01:31:31.221Z,94.08
2016-07-31T01:31:39.917Z,94.17
2016-07-31T01:31:48.612Z,94.27
2016-07-31T01:31:57.307Z,93.98
2016-07-31T01:32:06.017Z,94.65
2016-07-31T01:32:14.722Z,94.65
2016-07-31T01:32:23.439Z,94.27
2016-07-31T01:32:32.170Z,93.89
2016-07-31T01:32:40.935Z,93.98
2016-07-31T01:32:49.643Z,94.27
2016-07-31T01:32:58.366Z,94.93
2016-07-31T01:33:07.057Z,93.94
2016-07-31T01:33:15.719Z,94.13
2016-07-31T01:33:24.431Z,94.7
2016-07-31T01:33:33.117Z,94.27
2016-07-31T01:33:41.823Z,94.27
2016-07-31T01:33:50.550Z,94.27
2016-07-31T01:33:59.295Z,94.84
2016-07-31T01:34:07.995Z,94.89
2016-07-31T01:34:16.734Z,94.22
2016-07-31T01:34:25.486Z,94.22
2016-07-31T01:34:34.208Z,94.79
2016-07-31T01:34:42.944Z,94.27
2016-07-31T01:34:51.627Z,94.22
2016-07-31T01:35:00.393Z,94.79
2016-07-31T01:35:09.149Z,94.22
2016-07-31T01:35:17.847Z,94.08
2016-07-31T01:35:26.527Z,94.08
2016-07-31T01:35:35.269Z,94.13
2016-07-31T01:35:43.969Z,94.56
2016-07-31T01:35:52.670Z,94.46
2016-07-31T01:36:01.376Z,94.03
2016-07-31T01:36:10.113Z,94.65
2016-07-31T01:36:18.839Z,94.46
2016-07-31T01:36:27.574Z,94.46
2016-07-31T01:36:36.277Z,94.46
2016-07-31T01:36:45.001Z,94.03
2016-07-31T01:36:53.715Z,94.6
2016-07-31T01:37:02.427Z,94.13
2016-07-31T01:37:11.170Z,94.89
2016-07-31T01:37:19.862Z,94.13
2016-07-31T01:37:28.559Z,94.22
2016-07-31T01:37:37.260Z,94.32
2016-07-31T01:37:45.986Z,94.42
2016-07-31T01:37:54.694Z,94.32
2016-07-31T01:38:03.390Z,93.98
2016-07-31T01:38:12.068Z,94.08
2016-07-31T01:38:20.773Z,94.08
2016-07-31T01:38:29.514Z,93.51
2016-07-31T01:38:38.257Z,93.41
2016-07-31T01:38:46.995Z,93.13
2016-07-31T01:38:55.741Z,92.65
2016-07-31T01:39:04.423Z,92.94
2016-07-31T01:39:13.140Z,92.55
2016-07-31T01:39:21.880Z,92.55
2016-07-31T01:39:30.603Z,92.55
2016-07-31T01:39:39.333Z,92.65
2016-07-31T01:39:48.032Z,92.46
2016-07-31T01:39:56.728Z,92.65
2016-07-31T01:40:05.384Z,92.55
2016-07-31T01:40:14.103Z,92.65
2016-07-31T01:40:22.809Z,92.55
2016-07-31T01:40:32.224Z,92.65
2016-07-31T01:40:40.943Z,92.84
2016-07-31T01:40:49.689Z,93.03
2016-07-31T01:40:58.411Z,93.22
2016-07-31T01:41:07.099Z,93.32
2016-07-31T01:41:16.538Z,93.32
2016-07-31T01:41:25.258Z,93.51
2016-07-31T01:41:33.962Z,93.6
2016-07-31T01:41:42.649Z,93.7
2016-07-31T01:41:51.342Z,93.6
2016-07-31T01:42:00.089Z,93.6
2016-07-31T01:42:08.798Z,93.6
2016-07-31T01:42:18.200Z,93.89
2016-07-31T01:42:26.880Z,93.6
2016-07-31T01:42:35.611Z,93.55
2016-07-31T01:42:44.381Z,93.65
2016-07-31T01:42:53.052Z,93.94
2016-07-31T01:43:10.574Z,93.89
2016-07-31T01:43:19.296Z,93.65
2016-07-31T01:43:28.677Z,93.94
2016-07-31T01:43:37.399Z,94.32
2016-07-31T01:43:46.166Z,94.27
2016-07-31T01:43:54.914Z,94.17
2016-07-31T01:44:04.364Z,93.94
2016-07-31T01:44:13.075Z,94.32
2016-07-31T01:44:21.782Z,94.46
2016-07-31T01:44:30.482Z,94.46
2016-07-31T01:44:39.224Z,94.03
2016-07-31T01:44:47.903Z,94.03
2016-07-31T01:44:56.649Z,94.27
2016-07-31T01:45:05.363Z,94.03
2016-07-31T01:45:14.085Z,94.08
2016-07-31T01:45:22.742Z,94.03
2016-07-31T01:45:31.487Z,94.37
2016-07-31T01:45:40.197Z,94.03
2016-07-31T01:45:48.938Z,94.17
2016-07-31T01:45:57.652Z,94.03
2016-07-31T01:46:06.349Z,94.22
2016-07-31T01:46:15.038Z,94.27
2016-07-31T01:46:23.739Z,94.03
2016-07-31T01:46:32.418Z,94.03
2016-07-31T01:46:41.148Z,94.27
2016-07-31T01:46:49.891Z,94.13
2016-07-31T01:46:58.621Z,94.13
2016-07-31T01:47:07.379Z,94.03
2016-07-31T01:47:16.096Z,93.84
2016-07-31T01:47:24.823Z,94.22
2016-07-31T01:47:33.533Z,94.13
2016-07-31T01:47:42.252Z,94.32
2016-07-31T01:47:50.913Z,93.94
2016-07-31T01:47:59.600Z,94.51
2016-07-31T01:48:08.339Z,94.6
2016-07-31T01:48:17.067Z,94.32
2016-07-31T01:48:25.779Z,94.37
2016-07-31T01:48:34.482Z,94.42
2016-07-31T01:48:43.237Z,94.42
2016-07-31T01:48:51.935Z,94.32
2016-07-31T01:49:00.632Z,94.7
2016-07-31T01:49:09.293Z,94.42
2016-07-31T01:49:17.979Z,94.6
2016-07-31T01:49:26.695Z,94.13
2016-07-31T01:49:35.392Z,94.22
2016-07-31T01:49:44.118Z,94.32
2016-07-31T01:49:52.831Z,94.42
2016-07-31T01:50:01.531Z,94.6
2016-07-31T01:50:10.227Z,94.13
2016-07-31T01:50:18.903Z,94.13
2016-07-31T01:50:27.590Z,94.13
2016-07-31T01:50:36.313Z,94.22
2016-07-31T01:50:45.056Z,94.32
2016-07-31T01:50:53.772Z,94.13
2016-07-31T01:51:03.164Z,94.13
2016-07-31T01:51:11.878Z,94.32
2016-07-31T01:51:20.607Z,94.32
2016-07-31T01:51:29.326Z,94.42
2016-07-31T01:51:38.055Z,94.6
2016-07-31T01:51:46.761Z,94.42
2016-07-31T01:51:55.521Z,94.32
2016-07-31T01:52:04.221Z,94.42
2016-07-31T01:52:12.947Z,93.94
2016-07-31T01:52:21.657Z,94.22
2016-07-31T01:52:30.350Z,94.22
2016-07-31T01:52:39.063Z,94.17
2016-07-31T01:52:47.779Z,93.94
2016-07-31T01:52:56.461Z,94.03
2016-07-31T01:53:05.192Z,94.13
2016-07-31T01:53:13.883Z,94.37
2016-07-31T01:53:22.587Z,94.03
2016-07-31T01:53:31.328Z,94.03
2016-07-31T01:53:40.039Z,94.03
2016-07-31T01:53:48.738Z,93.94
2016-07-31T01:53:57.477Z,94.03